LiveATC.Net - Listen to live air traffic control over the Internet! Contact for advertising information

ICAO: KRBD  IATA: RBD   Airport: Dallas Executive Airport
City: Dallas   State/Province: Texas
Country: United States   Continent: North America
KRBD METAR Weather: KRBD 262253Z AUTO 14010KT 7SM OVC010 20/19 A3007 RMK AO2 RAE24 CIG 007V012 SLP176 P0001 T02000189
KRBD Flight Activity (FlightAware)
KRBD Airport Info   (AirNav) (iFlightPlanner)
KRBD VFR Sectional Chart   (iFlightPlanner) 
KRBD IFR Low Chart   (iFlightPlanner) 
KRBD Gnd/Twr
Feed Status: UP   Listeners: 2
Listen right in your browser - requires Flash (in browser, requires Flash)
Click here to listen with your own player (launches your MP3 player)
KRBD Gnd/Twr Audio Archives
Executive Ground119.475
Executive Tower127.250


Unauthorized use prohibited. See Terms of Service

Find LiveATC Audio Streams

Airport/ARTCC Code

(e.g., 124.400, 128.75)
Site-wide search

Browse LiveATC Feeds
LiveATC Coverage Map
Top 50 LiveATC Feeds
Bad Weather Areas

Offer a LiveATC Feed
Press Inquiries

LiveATC on iPhone
LiveATC on Android

Windows Phone
Windows 8/10

LiveATC Mobile
(Mobile browser)

ATC Audio Archives
Interesting Recordings

LiveATC Forums

Home Page
Make a Donation
LiveATC Bookstore

Terms of Use
Privacy Policy

ATC/Radar Sites
U.S. ARTCC Freqs
Canadian Air Freqs


FAA Airport Status
Nat'l Airspace Status
Arrival Demand Charts

Server Software By:

Please make a donation to help us keep growing!